sensor_id;sensor_type;location;lat;lon;timestamp;P1;durP1;ratioP1;P2;durP2;ratioP2
19030;SDS011;9648;51.130;13.978;2022-10-31T00:00:06;26.20;;;16.63;;
19030;SDS011;9648;51.130;13.978;2022-10-31T00:02:37;26.20;;;18.10;;
19030;SDS011;9648;51.130;13.978;2022-10-31T00:05:04;31.08;;;21.02;;
19030;SDS011;9648;51.130;13.978;2022-10-31T00:07:33;29.23;;;20.23;;
19030;SDS011;9648;51.130;13.978;2022-10-31T00:09:59;28.55;;;18.77;;
19030;SDS011;9648;51.130;13.978;2022-10-31T00:12:26;25.85;;;17.95;;
19030;SDS011;9648;51.130;13.978;2022-10-31T00:14:53;27.25;;;16.80;;
19030;SDS011;9648;51.130;13.978;2022-10-31T00:17:20;23.93;;;16.33;;
19030;SDS011;9648;51.130;13.978;2022-10-31T00:19:47;24.60;;;16.70;;
19030;SDS011;9648;51.130;13.978;2022-10-31T00:22:14;21.80;;;15.85;;
19030;SDS011;9648;51.130;13.978;2022-10-31T00:24:42;23.40;;;15.40;;
19030;SDS011;9648;51.130;13.978;2022-10-31T00:27:09;23.75;;;14.70;;
19030;SDS011;9648;51.130;13.978;2022-10-31T00:29:36;20.02;;;13.65;;
19030;SDS011;9648;51.130;13.978;2022-10-31T00:32:03;26.73;;;16.15;;
19030;SDS011;9648;51.130;13.978;2022-10-31T00:34:30;24.45;;;15.95;;
19030;SDS011;9648;51.130;13.978;2022-10-31T00:36:57;25.58;;;16.35;;
19030;SDS011;9648;51.130;13.978;2022-10-31T00:39:23;27.80;;;16.83;;
19030;SDS011;9648;51.130;13.978;2022-10-31T00:41:52;30.85;;;17.33;;
19030;SDS011;9648;51.130;13.978;2022-10-31T00:44:19;27.25;;;17.15;;
19030;SDS011;9648;51.130;13.978;2022-10-31T00:46:46;26.93;;;16.87;;
19030;SDS011;9648;51.130;13.978;2022-10-31T00:49:12;26.77;;;16.85;;
19030;SDS011;9648;51.130;13.978;2022-10-31T00:51:39;27.77;;;16.75;;
19030;SDS011;9648;51.130;13.978;2022-10-31T00:54:06;23.48;;;15.45;;
19030;SDS011;9648;51.130;13.978;2022-10-31T00:56:33;24.67;;;16.48;;
19030;SDS011;9648;51.130;13.978;2022-10-31T00:59:01;27.15;;;17.02;;
19030;SDS011;9648;51.130;13.978;2022-10-31T01:01:28;23.70;;;15.32;;
19030;SDS011;9648;51.130;13.978;2022-10-31T01:03:55;25.98;;;16.17;;
19030;SDS011;9648;51.130;13.978;2022-10-31T01:06:22;24.98;;;15.10;;
19030;SDS011;9648;51.130;13.978;2022-10-31T01:08:48;21.45;;;14.23;;
19030;SDS011;9648;51.130;13.978;2022-10-31T01:11:16;20.50;;;13.70;;
19030;SDS011;9648;51.130;13.978;2022-10-31T01:13:44;24.90;;;14.75;;
19030;SDS011;9648;51.130;13.978;2022-10-31T01:16:13;21.67;;;13.82;;
19030;SDS011;9648;51.130;13.978;2022-10-31T01:18:42;21.98;;;13.90;;
19030;SDS011;9648;51.130;13.978;2022-10-31T01:21:10;21.85;;;13.63;;
19030;SDS011;9648;51.130;13.978;2022-10-31T01:23:38;21.67;;;14.05;;
19030;SDS011;9648;51.130;13.978;2022-10-31T01:26:07;22.48;;;14.20;;
19030;SDS011;9648;51.130;13.978;2022-10-31T01:28:35;21.88;;;14.25;;
19030;SDS011;9648;51.130;13.978;2022-10-31T01:31:05;22.52;;;13.65;;
19030;SDS011;9648;51.130;13.978;2022-10-31T01:33:35;22.42;;;14.18;;
19030;SDS011;9648;51.130;13.978;2022-10-31T01:36:10;21.33;;;13.88;;
19030;SDS011;9648;51.130;13.978;2022-10-31T01:38:38;21.90;;;14.15;;
19030;SDS011;9648;51.130;13.978;2022-10-31T01:41:05;21.30;;;13.93;;
19030;SDS011;9648;51.130;13.978;2022-10-31T01:43:42;20.88;;;13.15;;
19030;SDS011;9648;51.130;13.978;2022-10-31T01:46:10;20.15;;;13.35;;
19030;SDS011;9648;51.130;13.978;2022-10-31T01:48:39;20.95;;;13.43;;
19030;SDS011;9648;51.130;13.978;2022-10-31T01:51:07;21.92;;;14.40;;
19030;SDS011;9648;51.130;13.978;2022-10-31T01:53:37;22.02;;;13.95;;
19030;SDS011;9648;51.130;13.978;2022-10-31T01:56:06;20.08;;;13.07;;
19030;SDS011;9648;51.130;13.978;2022-10-31T01:58:33;22.23;;;13.55;;
19030;SDS011;9648;51.130;13.978;2022-10-31T02:01:00;21.48;;;13.70;;
19030;SDS011;9648;51.130;13.978;2022-10-31T02:03:29;21.85;;;13.70;;
19030;SDS011;9648;51.130;13.978;2022-10-31T02:06:00;20.60;;;13.48;;
19030;SDS011;9648;51.130;13.978;2022-10-31T02:08:30;21.90;;;13.48;;
19030;SDS011;9648;51.130;13.978;2022-10-31T02:10:59;21.38;;;13.30;;
19030;SDS011;9648;51.130;13.978;2022-10-31T02:13:28;19.08;;;12.60;;
19030;SDS011;9648;51.130;13.978;2022-10-31T02:15:56;20.03;;;12.80;;
19030;SDS011;9648;51.130;13.978;2022-10-31T02:18:25;23.92;;;13.35;;
19030;SDS011;9648;51.130;13.978;2022-10-31T02:20:58;19.45;;;12.82;;
19030;SDS011;9648;51.130;13.978;2022-10-31T02:26:32;20.13;;;13.45;;
19030;SDS011;9648;51.130;13.978;2022-10-31T02:32:20;23.10;;;14.18;;
19030;SDS011;9648;51.130;13.978;2022-10-31T02:34:51;21.30;;;13.10;;
19030;SDS011;9648;51.130;13.978;2022-10-31T02:37:25;19.20;;;12.60;;
19030;SDS011;9648;51.130;13.978;2022-10-31T02:39:59;20.70;;;12.63;;
19030;SDS011;9648;51.130;13.978;2022-10-31T02:42:38;20.95;;;13.00;;
19030;SDS011;9648;51.130;13.978;2022-10-31T02:45:11;23.08;;;13.57;;
19030;SDS011;9648;51.130;13.978;2022-10-31T02:47:46;21.40;;;13.35;;
19030;SDS011;9648;51.130;13.978;2022-10-31T02:50:17;18.67;;;13.13;;
19030;SDS011;9648;51.130;13.978;2022-10-31T02:52:49;19.05;;;12.52;;
19030;SDS011;9648;51.130;13.978;2022-10-31T02:58:21;19.08;;;13.18;;
19030;SDS011;9648;51.130;13.978;2022-10-31T03:01:00;21.10;;;13.57;;
19030;SDS011;9648;51.130;13.978;2022-10-31T03:03:42;21.23;;;13.60;;
19030;SDS011;9648;51.130;13.978;2022-10-31T03:06:20;21.07;;;13.70;;
19030;SDS011;9648;51.130;13.978;2022-10-31T03:08:54;20.88;;;13.65;;
19030;SDS011;9648;51.130;13.978;2022-10-31T03:11:28;16.52;;;11.40;;
19030;SDS011;9648;51.130;13.978;2022-10-31T03:13:59;19.98;;;13.27;;
19030;SDS011;9648;51.130;13.978;2022-10-31T03:16:34;25.30;;;15.10;;
19030;SDS011;9648;51.130;13.978;2022-10-31T03:19:08;24.45;;;14.95;;
19030;SDS011;9648;51.130;13.978;2022-10-31T03:21:39;20.92;;;13.77;;
19030;SDS011;9648;51.130;13.978;2022-10-31T03:24:10;23.80;;;14.52;;
19030;SDS011;9648;51.130;13.978;2022-10-31T03:26:40;20.00;;;13.02;;
19030;SDS011;9648;51.130;13.978;2022-10-31T03:29:12;20.65;;;13.57;;
19030;SDS011;9648;51.130;13.978;2022-10-31T03:31:42;21.13;;;13.63;;
19030;SDS011;9648;51.130;13.978;2022-10-31T03:34:14;17.57;;;12.50;;
19030;SDS011;9648;51.130;13.978;2022-10-31T03:36:44;20.55;;;13.20;;
19030;SDS011;9648;51.130;13.978;2022-10-31T03:39:14;20.58;;;12.73;;
19030;SDS011;9648;51.130;13.978;2022-10-31T03:41:44;20.30;;;13.00;;
19030;SDS011;9648;51.130;13.978;2022-10-31T03:44:14;18.95;;;12.55;;
19030;SDS011;9648;51.130;13.978;2022-10-31T03:46:45;19.83;;;12.80;;
19030;SDS011;9648;51.130;13.978;2022-10-31T03:49:12;23.23;;;14.20;;
19030;SDS011;9648;51.130;13.978;2022-10-31T03:51:42;23.00;;;13.27;;
19030;SDS011;9648;51.130;13.978;2022-10-31T03:54:16;23.27;;;14.82;;
19030;SDS011;9648;51.130;13.978;2022-10-31T03:56:51;22.52;;;14.50;;
19030;SDS011;9648;51.130;13.978;2022-10-31T03:59:21;19.30;;;12.73;;
19030;SDS011;9648;51.130;13.978;2022-10-31T04:01:53;20.63;;;13.30;;
19030;SDS011;9648;51.130;13.978;2022-10-31T04:04:25;21.38;;;13.00;;
19030;SDS011;9648;51.130;13.978;2022-10-31T04:06:53;18.13;;;12.48;;
19030;SDS011;9648;51.130;13.978;2022-10-31T04:09:22;20.45;;;13.75;;
19030;SDS011;9648;51.130;13.978;2022-10-31T04:11:50;20.50;;;13.50;;
19030;SDS011;9648;51.130;13.978;2022-10-31T04:14:20;25.40;;;15.10;;
19030;SDS011;9648;51.130;13.978;2022-10-31T04:16:50;23.30;;;14.63;;
19030;SDS011;9648;51.130;13.978;2022-10-31T04:19:17;24.30;;;14.77;;
19030;SDS011;9648;51.130;13.978;2022-10-31T04:21:45;25.58;;;15.40;;
19030;SDS011;9648;51.130;13.978;2022-10-31T04:24:12;20.35;;;14.27;;
19030;SDS011;9648;51.130;13.978;2022-10-31T04:26:38;24.42;;;15.38;;
19030;SDS011;9648;51.130;13.978;2022-10-31T04:29:05;22.15;;;14.07;;
19030;SDS011;9648;51.130;13.978;2022-10-31T04:31:32;20.03;;;13.50;;
19030;SDS011;9648;51.130;13.978;2022-10-31T04:33:59;25.85;;;14.55;;
19030;SDS011;9648;51.130;13.978;2022-10-31T04:36:26;26.27;;;14.60;;
19030;SDS011;9648;51.130;13.978;2022-10-31T04:38:54;22.38;;;13.30;;
19030;SDS011;9648;51.130;13.978;2022-10-31T04:41:21;21.20;;;13.32;;
19030;SDS011;9648;51.130;13.978;2022-10-31T04:43:47;20.55;;;14.20;;
19030;SDS011;9648;51.130;13.978;2022-10-31T04:46:14;22.08;;;13.45;;
19030;SDS011;9648;51.130;13.978;2022-10-31T04:48:41;20.67;;;12.68;;
19030;SDS011;9648;51.130;13.978;2022-10-31T04:51:08;16.30;;;11.48;;
19030;SDS011;9648;51.130;13.978;2022-10-31T04:53:35;18.63;;;12.73;;
19030;SDS011;9648;51.130;13.978;2022-10-31T04:56:03;22.40;;;13.93;;
19030;SDS011;9648;51.130;13.978;2022-10-31T04:58:30;22.27;;;13.55;;
19030;SDS011;9648;51.130;13.978;2022-10-31T05:00:57;30.65;;;14.65;;
19030;SDS011;9648;51.130;13.978;2022-10-31T05:03:24;21.85;;;13.77;;
19030;SDS011;9648;51.130;13.978;2022-10-31T05:05:51;20.45;;;14.00;;
19030;SDS011;9648;51.130;13.978;2022-10-31T05:08:18;26.25;;;15.07;;
19030;SDS011;9648;51.130;13.978;2022-10-31T05:10:44;22.73;;;13.57;;
19030;SDS011;9648;51.130;13.978;2022-10-31T05:13:13;20.40;;;13.18;;
19030;SDS011;9648;51.130;13.978;2022-10-31T05:15:40;22.10;;;13.10;;
19030;SDS011;9648;51.130;13.978;2022-10-31T05:18:07;22.42;;;13.85;;
19030;SDS011;9648;51.130;13.978;2022-10-31T05:20:34;19.10;;;12.50;;
19030;SDS011;9648;51.130;13.978;2022-10-31T05:23:01;19.60;;;12.63;;
19030;SDS011;9648;51.130;13.978;2022-10-31T05:25:28;19.80;;;13.20;;
19030;SDS011;9648;51.130;13.978;2022-10-31T05:27:55;19.77;;;13.07;;
19030;SDS011;9648;51.130;13.978;2022-10-31T05:30:25;17.80;;;11.57;;
19030;SDS011;9648;51.130;13.978;2022-10-31T05:32:52;17.52;;;11.77;;
19030;SDS011;9648;51.130;13.978;2022-10-31T05:35:20;18.48;;;12.38;;
19030;SDS011;9648;51.130;13.978;2022-10-31T05:37:48;18.70;;;11.60;;
19030;SDS011;9648;51.130;13.978;2022-10-31T05:40:15;18.40;;;11.88;;
19030;SDS011;9648;51.130;13.978;2022-10-31T05:42:44;16.30;;;10.93;;
19030;SDS011;9648;51.130;13.978;2022-10-31T05:45:12;20.25;;;12.23;;
19030;SDS011;9648;51.130;13.978;2022-10-31T05:47:41;20.38;;;12.93;;
19030;SDS011;9648;51.130;13.978;2022-10-31T05:50:09;18.50;;;12.30;;
19030;SDS011;9648;51.130;13.978;2022-10-31T05:52:36;21.00;;;13.18;;
19030;SDS011;9648;51.130;13.978;2022-10-31T05:55:03;18.25;;;11.38;;
19030;SDS011;9648;51.130;13.978;2022-10-31T05:57:31;19.20;;;12.37;;
19030;SDS011;9648;51.130;13.978;2022-10-31T05:59:58;15.15;;;10.65;;
19030;SDS011;9648;51.130;13.978;2022-10-31T06:02:25;21.30;;;11.90;;
19030;SDS011;9648;51.130;13.978;2022-10-31T06:04:57;16.33;;;11.03;;
19030;SDS011;9648;51.130;13.978;2022-10-31T06:07:24;18.83;;;11.32;;
19030;SDS011;9648;51.130;13.978;2022-10-31T06:09:51;19.70;;;12.07;;
19030;SDS011;9648;51.130;13.978;2022-10-31T06:12:18;18.85;;;12.50;;
19030;SDS011;9648;51.130;13.978;2022-10-31T06:14:45;22.00;;;12.73;;
19030;SDS011;9648;51.130;13.978;2022-10-31T06:17:12;19.25;;;12.65;;
19030;SDS011;9648;51.130;13.978;2022-10-31T06:19:38;19.80;;;12.82;;
19030;SDS011;9648;51.130;13.978;2022-10-31T06:22:06;16.73;;;10.90;;
19030;SDS011;9648;51.130;13.978;2022-10-31T06:24:33;17.63;;;11.90;;
19030;SDS011;9648;51.130;13.978;2022-10-31T06:27:00;18.52;;;11.60;;
19030;SDS011;9648;51.130;13.978;2022-10-31T06:29:27;15.05;;;10.55;;
19030;SDS011;9648;51.130;13.978;2022-10-31T06:31:54;19.77;;;11.53;;
19030;SDS011;9648;51.130;13.978;2022-10-31T06:34:20;18.80;;;11.20;;
19030;SDS011;9648;51.130;13.978;2022-10-31T06:36:47;19.73;;;11.55;;
19030;SDS011;9648;51.130;13.978;2022-10-31T06:39:16;21.60;;;12.00;;
19030;SDS011;9648;51.130;13.978;2022-10-31T06:41:42;15.10;;;10.00;;
19030;SDS011;9648;51.130;13.978;2022-10-31T06:44:09;17.30;;;10.87;;
19030;SDS011;9648;51.130;13.978;2022-10-31T06:46:36;19.85;;;11.90;;
19030;SDS011;9648;51.130;13.978;2022-10-31T06:49:03;17.15;;;10.75;;
19030;SDS011;9648;51.130;13.978;2022-10-31T06:51:30;17.55;;;10.43;;
19030;SDS011;9648;51.130;13.978;2022-10-31T06:53:57;17.35;;;10.00;;
19030;SDS011;9648;51.130;13.978;2022-10-31T06:56:25;15.15;;;10.85;;
19030;SDS011;9648;51.130;13.978;2022-10-31T06:58:52;15.63;;;10.60;;
19030;SDS011;9648;51.130;13.978;2022-10-31T07:01:18;16.15;;;9.88;;
19030;SDS011;9648;51.130;13.978;2022-10-31T07:03:45;17.17;;;11.43;;
19030;SDS011;9648;51.130;13.978;2022-10-31T07:06:12;18.35;;;12.35;;
19030;SDS011;9648;51.130;13.978;2022-10-31T07:08:39;16.65;;;11.30;;
19030;SDS011;9648;51.130;13.978;2022-10-31T07:11:06;16.00;;;11.00;;
19030;SDS011;9648;51.130;13.978;2022-10-31T07:13:34;14.95;;;10.75;;
19030;SDS011;9648;51.130;13.978;2022-10-31T07:16:02;19.43;;;11.50;;
19030;SDS011;9648;51.130;13.978;2022-10-31T07:18:31;16.20;;;11.05;;
19030;SDS011;9648;51.130;13.978;2022-10-31T07:20:58;14.45;;;9.63;;
19030;SDS011;9648;51.130;13.978;2022-10-31T07:23:25;16.23;;;10.20;;
19030;SDS011;9648;51.130;13.978;2022-10-31T07:25:54;13.65;;;9.30;;
19030;SDS011;9648;51.130;13.978;2022-10-31T07:28:21;12.15;;;8.85;;
19030;SDS011;9648;51.130;13.978;2022-10-31T07:30:50;13.82;;;9.38;;
19030;SDS011;9648;51.130;13.978;2022-10-31T07:33:17;12.25;;;8.75;;
19030;SDS011;9648;51.130;13.978;2022-10-31T07:35:44;17.67;;;11.23;;
19030;SDS011;9648;51.130;13.978;2022-10-31T07:38:12;16.08;;;10.10;;
19030;SDS011;9648;51.130;13.978;2022-10-31T07:40:39;13.25;;;9.93;;
19030;SDS011;9648;51.130;13.978;2022-10-31T07:43:07;15.48;;;10.45;;
19030;SDS011;9648;51.130;13.978;2022-10-31T07:45:36;13.95;;;10.00;;
19030;SDS011;9648;51.130;13.978;2022-10-31T07:48:05;15.85;;;11.57;;
19030;SDS011;9648;51.130;13.978;2022-10-31T07:50:32;17.23;;;12.43;;
19030;SDS011;9648;51.130;13.978;2022-10-31T07:53:00;18.80;;;13.43;;
19030;SDS011;9648;51.130;13.978;2022-10-31T07:55:28;20.77;;;15.15;;
19030;SDS011;9648;51.130;13.978;2022-10-31T07:57:56;22.35;;;16.73;;
19030;SDS011;9648;51.130;13.978;2022-10-31T08:00:23;22.10;;;16.65;;
19030;SDS011;9648;51.130;13.978;2022-10-31T08:02:56;29.00;;;19.65;;
19030;SDS011;9648;51.130;13.978;2022-10-31T08:05:25;24.90;;;18.10;;
19030;SDS011;9648;51.130;13.978;2022-10-31T08:07:52;25.02;;;20.05;;
19030;SDS011;9648;51.130;13.978;2022-10-31T08:10:19;25.02;;;18.02;;
19030;SDS011;9648;51.130;13.978;2022-10-31T08:12:46;20.98;;;15.65;;
19030;SDS011;9648;51.130;13.978;2022-10-31T08:15:13;21.27;;;14.52;;
19030;SDS011;9648;51.130;13.978;2022-10-31T08:17:40;19.20;;;12.73;;
19030;SDS011;9648;51.130;13.978;2022-10-31T08:20:07;15.70;;;11.13;;
19030;SDS011;9648;51.130;13.978;2022-10-31T08:22:36;18.07;;;12.90;;
19030;SDS011;9648;51.130;13.978;2022-10-31T08:25:03;24.03;;;15.97;;
19030;SDS011;9648;51.130;13.978;2022-10-31T08:27:30;23.90;;;16.63;;
19030;SDS011;9648;51.130;13.978;2022-10-31T08:29:57;25.63;;;18.53;;
19030;SDS011;9648;51.130;13.978;2022-10-31T08:32:24;26.90;;;18.83;;
19030;SDS011;9648;51.130;13.978;2022-10-31T08:34:51;24.92;;;17.35;;
19030;SDS011;9648;51.130;13.978;2022-10-31T08:37:18;18.50;;;13.73;;
19030;SDS011;9648;51.130;13.978;2022-10-31T08:39:46;16.92;;;11.68;;
19030;SDS011;9648;51.130;13.978;2022-10-31T08:42:13;14.80;;;9.00;;
19030;SDS011;9648;51.130;13.978;2022-10-31T08:44:40;12.48;;;7.68;;
19030;SDS011;9648;51.130;13.978;2022-10-31T08:47:07;11.40;;;6.82;;
19030;SDS011;9648;51.130;13.978;2022-10-31T08:49:34;10.20;;;6.30;;
19030;SDS011;9648;51.130;13.978;2022-10-31T08:52:00;11.50;;;6.32;;
19030;SDS011;9648;51.130;13.978;2022-10-31T08:54:27;9.68;;;5.82;;
19030;SDS011;9648;51.130;13.978;2022-10-31T08:56:55;10.63;;;5.97;;
19030;SDS011;9648;51.130;13.978;2022-10-31T08:59:22;9.90;;;6.10;;
19030;SDS011;9648;51.130;13.978;2022-10-31T09:01:49;14.00;;;5.95;;
19030;SDS011;9648;51.130;13.978;2022-10-31T09:04:16;10.80;;;6.35;;
19030;SDS011;9648;51.130;13.978;2022-10-31T09:06:42;9.83;;;6.10;;
19030;SDS011;9648;51.130;13.978;2022-10-31T09:09:09;10.95;;;6.18;;
19030;SDS011;9648;51.130;13.978;2022-10-31T09:11:36;10.68;;;6.88;;
19030;SDS011;9648;51.130;13.978;2022-10-31T09:14:04;11.93;;;6.38;;
19030;SDS011;9648;51.130;13.978;2022-10-31T09:16:31;9.35;;;6.45;;
19030;SDS011;9648;51.130;13.978;2022-10-31T09:18:58;11.15;;;6.40;;
19030;SDS011;9648;51.130;13.978;2022-10-31T09:21:25;9.13;;;5.72;;
19030;SDS011;9648;51.130;13.978;2022-10-31T09:23:52;12.10;;;5.43;;
19030;SDS011;9648;51.130;13.978;2022-10-31T09:26:19;9.75;;;5.85;;
19030;SDS011;9648;51.130;13.978;2022-10-31T09:28:46;11.20;;;5.88;;
19030;SDS011;9648;51.130;13.978;2022-10-31T09:31:14;9.60;;;5.82;;
19030;SDS011;9648;51.130;13.978;2022-10-31T09:33:41;12.90;;;6.43;;
19030;SDS011;9648;51.130;13.978;2022-10-31T09:36:08;11.32;;;5.80;;
19030;SDS011;9648;51.130;13.978;2022-10-31T09:38:35;9.45;;;5.40;;
19030;SDS011;9648;51.130;13.978;2022-10-31T09:41:04;14.48;;;5.75;;
19030;SDS011;9648;51.130;13.978;2022-10-31T09:43:37;9.73;;;5.33;;
19030;SDS011;9648;51.130;13.978;2022-10-31T09:46:14;8.65;;;5.28;;
19030;SDS011;9648;51.130;13.978;2022-10-31T09:48:53;10.02;;;5.80;;
19030;SDS011;9648;51.130;13.978;2022-10-31T09:51:33;9.93;;;5.72;;
19030;SDS011;9648;51.130;13.978;2022-10-31T09:54:04;10.52;;;5.40;;
19030;SDS011;9648;51.130;13.978;2022-10-31T09:56:37;12.73;;;6.38;;
19030;SDS011;9648;51.130;13.978;2022-10-31T09:59:05;13.48;;;6.90;;
19030;SDS011;9648;51.130;13.978;2022-10-31T10:01:41;11.70;;;6.28;;
19030;SDS011;9648;51.130;13.978;2022-10-31T10:04:29;12.77;;;7.47;;
19030;SDS011;9648;51.130;13.978;2022-10-31T10:07:01;9.90;;;6.38;;
19030;SDS011;9648;51.130;13.978;2022-10-31T10:09:40;12.77;;;5.72;;
19030;SDS011;9648;51.130;13.978;2022-10-31T10:12:09;9.48;;;5.72;;
19030;SDS011;9648;51.130;13.978;2022-10-31T10:17:42;11.18;;;6.30;;
19030;SDS011;9648;51.130;13.978;2022-10-31T10:20:18;9.60;;;5.90;;
19030;SDS011;9648;51.130;13.978;2022-10-31T10:22:54;12.13;;;6.28;;
19030;SDS011;9648;51.130;13.978;2022-10-31T10:25:28;13.30;;;6.53;;
19030;SDS011;9648;51.130;13.978;2022-10-31T10:28:03;11.70;;;7.03;;
19030;SDS011;9648;51.130;13.978;2022-10-31T10:30:38;10.98;;;6.05;;
19030;SDS011;9648;51.130;13.978;2022-10-31T10:33:10;9.60;;;6.22;;
19030;SDS011;9648;51.130;13.978;2022-10-31T10:35:41;11.60;;;6.30;;
19030;SDS011;9648;51.130;13.978;2022-10-31T10:38:14;10.85;;;6.55;;
19030;SDS011;9648;51.130;13.978;2022-10-31T10:40:46;14.25;;;7.15;;
19030;SDS011;9648;51.130;13.978;2022-10-31T10:43:19;12.70;;;6.43;;
19030;SDS011;9648;51.130;13.978;2022-10-31T10:45:49;13.63;;;7.17;;
19030;SDS011;9648;51.130;13.978;2022-10-31T10:48:43;12.88;;;7.22;;
19030;SDS011;9648;51.130;13.978;2022-10-31T10:51:22;10.00;;;6.10;;
19030;SDS011;9648;51.130;13.978;2022-10-31T10:54:00;16.92;;;8.02;;
19030;SDS011;9648;51.130;13.978;2022-10-31T10:56:44;15.80;;;7.85;;
19030;SDS011;9648;51.130;13.978;2022-10-31T10:59:20;15.00;;;7.10;;
19030;SDS011;9648;51.130;13.978;2022-10-31T11:01:48;14.68;;;7.63;;
19030;SDS011;9648;51.130;13.978;2022-10-31T11:04:29;13.30;;;7.32;;
19030;SDS011;9648;51.130;13.978;2022-10-31T11:06:58;14.57;;;7.97;;
19030;SDS011;9648;51.130;13.978;2022-10-31T11:09:26;13.02;;;7.40;;
19030;SDS011;9648;51.130;13.978;2022-10-31T11:11:53;12.05;;;7.18;;
19030;SDS011;9648;51.130;13.978;2022-10-31T11:14:21;11.43;;;7.10;;
19030;SDS011;9648;51.130;13.978;2022-10-31T11:16:49;13.18;;;7.57;;
19030;SDS011;9648;51.130;13.978;2022-10-31T11:19:20;10.32;;;6.65;;
19030;SDS011;9648;51.130;13.978;2022-10-31T11:21:50;12.87;;;6.80;;
19030;SDS011;9648;51.130;13.978;2022-10-31T11:24:18;10.63;;;6.67;;
19030;SDS011;9648;51.130;13.978;2022-10-31T11:26:47;11.48;;;6.65;;
19030;SDS011;9648;51.130;13.978;2022-10-31T11:29:16;15.30;;;6.50;;
19030;SDS011;9648;51.130;13.978;2022-10-31T11:31:46;13.27;;;7.25;;
19030;SDS011;9648;51.130;13.978;2022-10-31T11:34:15;14.27;;;7.47;;
19030;SDS011;9648;51.130;13.978;2022-10-31T11:36:57;13.70;;;6.43;;
19030;SDS011;9648;51.130;13.978;2022-10-31T11:39:29;12.82;;;6.38;;
19030;SDS011;9648;51.130;13.978;2022-10-31T11:41:59;12.15;;;6.80;;
19030;SDS011;9648;51.130;13.978;2022-10-31T11:44:28;10.68;;;5.65;;
19030;SDS011;9648;51.130;13.978;2022-10-31T11:46:58;13.40;;;6.00;;
19030;SDS011;9648;51.130;13.978;2022-10-31T11:49:28;9.15;;;5.40;;
19030;SDS011;9648;51.130;13.978;2022-10-31T11:52:06;8.48;;;5.43;;
19030;SDS011;9648;51.130;13.978;2022-10-31T11:54:44;12.75;;;6.45;;
19030;SDS011;9648;51.130;13.978;2022-10-31T11:57:23;12.07;;;6.13;;
19030;SDS011;9648;51.130;13.978;2022-10-31T11:59:52;13.45;;;6.78;;
19030;SDS011;9648;51.130;13.978;2022-10-31T12:02:21;13.18;;;6.35;;
19030;SDS011;9648;51.130;13.978;2022-10-31T12:04:49;12.90;;;6.72;;
19030;SDS011;9648;51.130;13.978;2022-10-31T12:07:21;11.60;;;6.68;;
19030;SDS011;9648;51.130;13.978;2022-10-31T12:09:49;10.00;;;5.45;;
19030;SDS011;9648;51.130;13.978;2022-10-31T12:12:21;13.43;;;6.40;;
19030;SDS011;9648;51.130;13.978;2022-10-31T12:15:30;15.27;;;7.85;;
19030;SDS011;9648;51.130;13.978;2022-10-31T12:18:03;15.20;;;7.65;;
19030;SDS011;9648;51.130;13.978;2022-10-31T12:20:52;11.75;;;6.70;;
19030;SDS011;9648;51.130;13.978;2022-10-31T12:23:28;12.60;;;7.18;;
19030;SDS011;9648;51.130;13.978;2022-10-31T12:26:07;12.83;;;6.57;;
19030;SDS011;9648;51.130;13.978;2022-10-31T12:28:45;14.55;;;7.10;;
19030;SDS011;9648;51.130;13.978;2022-10-31T12:31:23;12.52;;;6.50;;
19030;SDS011;9648;51.130;13.978;2022-10-31T12:34:01;14.07;;;7.57;;
19030;SDS011;9648;51.130;13.978;2022-10-31T12:36:44;10.13;;;5.77;;
19030;SDS011;9648;51.130;13.978;2022-10-31T12:39:20;10.23;;;6.18;;
19030;SDS011;9648;51.130;13.978;2022-10-31T12:41:52;7.93;;;4.70;;
19030;SDS011;9648;51.130;13.978;2022-10-31T12:47:37;10.15;;;5.03;;
19030;SDS011;9648;51.130;13.978;2022-10-31T12:50:22;8.15;;;4.90;;
19030;SDS011;9648;51.130;13.978;2022-10-31T12:52:59;11.35;;;5.00;;
19030;SDS011;9648;51.130;13.978;2022-10-31T12:55:40;14.23;;;5.40;;
19030;SDS011;9648;51.130;13.978;2022-10-31T12:58:16;8.32;;;4.75;;
19030;SDS011;9648;51.130;13.978;2022-10-31T13:00:48;10.02;;;5.10;;
19030;SDS011;9648;51.130;13.978;2022-10-31T13:03:22;10.45;;;5.20;;
19030;SDS011;9648;51.130;13.978;2022-10-31T13:05:53;9.97;;;5.03;;
19030;SDS011;9648;51.130;13.978;2022-10-31T13:08:25;11.00;;;4.75;;
19030;SDS011;9648;51.130;13.978;2022-10-31T13:10:59;11.90;;;5.10;;
19030;SDS011;9648;51.130;13.978;2022-10-31T13:13:33;11.43;;;5.00;;
19030;SDS011;9648;51.130;13.978;2022-10-31T13:16:04;11.53;;;5.17;;
19030;SDS011;9648;51.130;13.978;2022-10-31T13:18:38;9.73;;;5.07;;
19030;SDS011;9648;51.130;13.978;2022-10-31T13:21:09;10.95;;;4.68;;
19030;SDS011;9648;51.130;13.978;2022-10-31T13:23:39;10.13;;;5.03;;
19030;SDS011;9648;51.130;13.978;2022-10-31T13:26:09;8.98;;;4.28;;
19030;SDS011;9648;51.130;13.978;2022-10-31T13:28:40;9.27;;;4.93;;
19030;SDS011;9648;51.130;13.978;2022-10-31T13:31:12;8.48;;;4.47;;
19030;SDS011;9648;51.130;13.978;2022-10-31T13:33:40;8.82;;;4.60;;
19030;SDS011;9648;51.130;13.978;2022-10-31T13:36:15;9.82;;;4.65;;
19030;SDS011;9648;51.130;13.978;2022-10-31T13:38:51;9.57;;;4.80;;
19030;SDS011;9648;51.130;13.978;2022-10-31T13:41:26;11.13;;;4.63;;
19030;SDS011;9648;51.130;13.978;2022-10-31T13:44:03;11.73;;;4.68;;
19030;SDS011;9648;51.130;13.978;2022-10-31T13:46:37;10.23;;;4.77;;
19030;SDS011;9648;51.130;13.978;2022-10-31T13:49:19;10.68;;;4.78;;
19030;SDS011;9648;51.130;13.978;2022-10-31T13:51:50;8.80;;;4.38;;
19030;SDS011;9648;51.130;13.978;2022-10-31T13:54:21;12.38;;;4.40;;
19030;SDS011;9648;51.130;13.978;2022-10-31T13:56:51;9.00;;;4.20;;
19030;SDS011;9648;51.130;13.978;2022-10-31T13:59:19;8.63;;;4.18;;
19030;SDS011;9648;51.130;13.978;2022-10-31T14:01:49;8.93;;;4.35;;
19030;SDS011;9648;51.130;13.978;2022-10-31T14:04:20;9.13;;;4.40;;
19030;SDS011;9648;51.130;13.978;2022-10-31T14:06:54;14.88;;;4.50;;
19030;SDS011;9648;51.130;13.978;2022-10-31T14:09:25;9.35;;;4.25;;
19030;SDS011;9648;51.130;13.978;2022-10-31T14:11:59;10.60;;;4.40;;
19030;SDS011;9648;51.130;13.978;2022-10-31T14:14:33;9.03;;;4.63;;
19030;SDS011;9648;51.130;13.978;2022-10-31T14:17:12;11.02;;;4.28;;
19030;SDS011;9648;51.130;13.978;2022-10-31T14:19:55;10.32;;;4.70;;
19030;SDS011;9648;51.130;13.978;2022-10-31T14:22:28;8.32;;;4.30;;
19030;SDS011;9648;51.130;13.978;2022-10-31T14:24:56;8.32;;;4.20;;
19030;SDS011;9648;51.130;13.978;2022-10-31T14:27:34;8.77;;;4.20;;
19030;SDS011;9648;51.130;13.978;2022-10-31T14:30:17;10.45;;;4.25;;
19030;SDS011;9648;51.130;13.978;2022-10-31T14:32:49;9.07;;;4.10;;
19030;SDS011;9648;51.130;13.978;2022-10-31T14:35:18;10.88;;;4.32;;
19030;SDS011;9648;51.130;13.978;2022-10-31T14:37:52;7.85;;;4.45;;
19030;SDS011;9648;51.130;13.978;2022-10-31T14:40:41;9.52;;;4.30;;
19030;SDS011;9648;51.130;13.978;2022-10-31T14:43:22;8.75;;;4.43;;
19030;SDS011;9648;51.130;13.978;2022-10-31T14:46:09;8.23;;;4.30;;
19030;SDS011;9648;51.130;13.978;2022-10-31T14:48:50;14.73;;;4.57;;
19030;SDS011;9648;51.130;13.978;2022-10-31T14:51:30;12.07;;;4.53;;
19030;SDS011;9648;51.130;13.978;2022-10-31T14:54:01;8.48;;;3.97;;
19030;SDS011;9648;51.130;13.978;2022-10-31T14:56:32;12.23;;;4.40;;
19030;SDS011;9648;51.130;13.978;2022-10-31T14:59:04;9.13;;;4.03;;
19030;SDS011;9648;51.130;13.978;2022-10-31T15:01:35;10.85;;;4.32;;